Acton, Indiana
Current Conditions -  °F | °C
As of 7:53 AM on Tuesday 21 Oct 2014 (Local Time) from KGEZ Reporting Station
Overcast Overcast  
Wind Chill: 50°   Ceiling: 5000
Heat Index: 50°   Visibility: 10mi
Dew Point: 45°   Wind: 6mph
Humidity: 83%   Direction: 310°NW
Pressure: 30.02"   Gusts: NA
Location:  39.6613°N, 85.9949°W
Report Text: KGEZ 211153Z AUTO 31005KT 10SM OVC050 10/07 A3002 RMK AO2 SLP165 70003 T01000072 10106 20089 51016
Loading
Personal Weather Stations






























Interactive Weather Map
Tropical Storm Tracking
New forecast layout! Learn more

10-Day Weather Forecast

Advertisements
Track Severe Weather on mobile